Time;durP1;ratioP1;P1;durP2;ratioP2;P2;SDS_P1;SDS_P2;PMS_P1;PMS_P2;Temp;Humidity;BMP_temperature;BMP_pressure;BME280_temperature;BME280_humidity;BME280_pressure;Samples;Min_cycle;Max_cycle;Signal;HPM_P1;HPM_P2
2021/06/22 00:00:08;;;;;;;5.25;1.20;;;;;;;18.45;81.50;98423.44;4975576;28;20168;-76
2021/06/22 00:02:34;;;;;;;3.97;1.40;;;;;;;18.38;84.52;98432.72;4974766;28;20570;-77
2021/06/22 00:05:01;;;;;;;1.75;1.20;;;;;;;18.19;85.71;98415.66;4974986;28;20458;-77
2021/06/22 00:07:29;;;;;;;2.70;1.20;;;;;;;18.29;86.28;98427.88;4975023;28;20051;-76
2021/06/22 00:09:56;;;;;;;5.60;1.40;;;;;;;18.29;85.63;98417.72;4975366;28;20140;-76
2021/06/22 00:12:23;;;;;;;2.90;1.25;;;;;;;18.33;82.12;98413.38;4975195;28;20086;-76
2021/06/22 00:14:50;;;;;;;2.42;1.30;;;;;;;18.18;80.11;98389.22;4974562;28;20105;-76
2021/06/22 00:17:17;;;;;;;3.90;1.55;;;;;;;18.27;83.04;98419.88;4975169;28;20102;-76
2021/06/22 00:19:43;;;;;;;4.03;1.52;;;;;;;18.14;83.30;98400.97;4970326;28;20105;-76
2021/06/22 00:22:10;;;;;;;6.05;1.33;;;;;;;18.30;84.36;98389.13;4975219;28;20047;-76
2021/06/22 00:24:38;;;;;;;6.45;1.38;;;;;;;18.30;84.03;98410.31;4975111;28;20055;-76
2021/06/22 00:27:05;;;;;;;1.90;1.52;;;;;;;18.36;84.92;98420.28;4974700;28;20105;-76
2021/06/22 00:29:32;;;;;;;5.43;1.65;;;;;;;18.34;85.16;98419.72;4975276;28;20059;-76
2021/06/22 00:31:59;;;;;;;7.07;1.67;;;;;;;18.10;87.19;98432.84;4974362;28;20046;-76
2021/06/22 00:34:26;;;;;;;9.93;1.85;;;;;;;18.01;87.38;98436.00;4974886;28;20051;-76
2021/06/22 00:36:52;;;;;;;6.55;1.75;;;;;;;18.12;86.39;98441.66;4974108;28;20062;-76
2021/06/22 00:39:19;;;;;;;9.93;1.45;;;;;;;18.07;86.53;98439.69;4975286;28;20053;-76
2021/06/22 00:41:47;;;;;;;9.82;1.52;;;;;;;18.09;86.22;98439.44;4974906;28;20470;-76
2021/06/22 00:44:14;;;;;;;9.52;2.13;;;;;;;17.93;85.15;98416.34;4974031;28;20122;-76
2021/06/22 00:46:41;;;;;;;16.98;2.67;;;;;;;17.90;85.78;98403.09;4974488;28;20050;-76
2021/06/22 00:49:08;;;;;;;2.95;1.20;;;;;;;18.09;85.17;98422.94;4974901;28;20129;-76
2021/06/22 00:51:35;;;;;;;5.70;1.60;;;;;;;18.04;84.52;98412.69;4969090;28;20055;-76
2021/06/22 00:54:02;;;;;;;11.13;1.70;;;;;;;18.09;84.21;98422.94;4974252;28;20090;-76
2021/06/22 00:56:30;;;;;;;9.95;1.88;;;;;;;17.74;86.15;98416.59;4974348;28;20091;-76
2021/06/22 00:58:59;;;;;;;8.02;1.60;;;;;;;17.66;86.68;98401.34;4974230;28;20122;-76
2021/06/22 01:01:26;;;;;;;4.05;1.80;;;;;;;17.66;87.05;98409.59;4974427;28;20058;-76
2021/06/22 01:03:53;;;;;;;8.85;1.60;;;;;;;17.47;87.39;98408.97;4973249;28;20503;-76
2021/06/22 01:06:23;;;;;;;6.28;1.80;;;;;;;17.34;87.78;98398.31;4980699;28;20050;-76
2021/06/22 01:08:50;;;;;;;;;;;;;;;17.33;88.16;98422.22;4974047;28;20058;-76
2021/06/22 01:11:18;;;;;;;4.05;1.40;;;;;;;17.36;88.49;98418.16;4974017;28;20004;-76
2021/06/22 01:13:45;;;;;;;8.73;2.35;;;;;;;17.49;87.52;98414.22;4973563;28;20050;-76
2021/06/22 01:16:23;;;;;;;3.08;1.55;;;;;;;17.47;87.08;98408.97;4973777;28;20058;-76
2021/06/22 01:18:57;;;;;;;8.07;1.40;;;;;;;17.59;86.75;98419.91;4973885;28;20129;-76
2021/06/22 01:21:26;;;;;;;8.10;2.00;;;;;;;17.72;86.25;98426.16;4966635;28;20058;-76
2021/06/22 01:23:52;;;;;;;16.42;1.77;;;;;;;17.62;85.27;98416.66;4966875;28;20057;-76
2021/06/22 01:26:19;;;;;;;11.18;1.75;;;;;;;17.12;86.32;98400.94;4973036;28;20054;-76
2021/06/22 01:28:46;;;;;;;5.80;1.60;;;;;;;17.03;87.00;98400.50;4973179;28;20059;-76
2021/06/22 01:31:14;;;;;;;4.43;1.55;;;;;;;17.06;87.33;98413.75;4973560;28;20570;-76
2021/06/22 01:33:45;;;;;;;6.13;2.13;;;;;;;17.12;86.73;98407.28;4973503;28;20055;-76
2021/06/22 01:36:12;;;;;;;4.45;1.92;;;;;;;16.90;87.38;98400.81;4973680;28;20054;-76
2021/06/22 01:38:40;;;;;;;5.28;2.70;;;;;;;16.90;87.73;98398.06;4973322;28;20050;-77
2021/06/22 01:41:07;;;;;;;11.95;2.20;;;;;;;16.79;88.31;98410.72;4973683;28;20495;-76
2021/06/22 01:43:34;;;;;;;3.97;1.80;;;;;;;16.73;88.23;98420.75;4972976;28;20106;-76
2021/06/22 01:46:01;;;;;;;5.13;2.03;;;;;;;16.72;88.74;98440.22;4972852;28;20636;-76
2021/06/22 01:48:27;;;;;;;5.93;2.25;;;;;;;16.66;89.59;98428.28;4973771;28;20458;-76
2021/06/22 01:50:54;;;;;;;6.13;2.05;;;;;;;16.77;89.10;98434.81;4973194;28;20495;-76
2021/06/22 01:53:21;;;;;;;6.80;2.40;;;;;;;16.92;87.80;98423.34;4973934;28;20611;-76
2021/06/22 01:55:49;;;;;;;4.28;1.92;;;;;;;16.70;87.92;98431.41;4969697;28;20058;-76
2021/06/22 01:58:17;;;;;;;4.32;1.90;;;;;;;16.61;87.37;98429.00;4973413;28;20070;-76
2021/06/22 02:00:46;;;;;;;18.20;2.50;;;;;;;16.46;88.65;98439.66;4973293;28;20051;-76
2021/06/22 02:03:16;;;;;;;5.20;1.67;;;;;;;16.41;89.30;98439.53;4972752;28;20515;-76
2021/06/22 02:05:43;;;;;;;5.57;1.98;;;;;;;16.45;89.04;98441.59;4973000;28;20054;-76
2021/06/22 02:08:10;;;;;;;7.40;1.90;;;;;;;16.63;88.71;98447.97;4973171;28;20054;-76
2021/06/22 02:10:38;;;;;;;5.53;2.20;;;;;;;16.49;88.24;98419.16;4972733;28;20051;-76
2021/06/22 02:13:06;;;;;;;6.60;2.60;;;;;;;16.44;88.85;98428.13;4972846;28;20047;-76
2021/06/22 02:15:33;;;;;;;8.93;2.28;;;;;;;16.37;89.25;98430.97;4971856;28;20054;-76
2021/06/22 02:18:00;;;;;;;8.07;2.63;;;;;;;16.35;89.48;98424.91;4973309;28;20057;-76
2021/06/22 02:20:28;;;;;;;3.63;2.03;;;;;;;16.44;89.19;98439.91;4973049;28;20062;-76
2021/06/22 02:22:54;;;;;;;4.90;2.40;;;;;;;16.60;89.25;98438.31;4972824;28;20043;-76
2021/06/22 02:25:21;;;;;;;5.85;2.17;;;;;;;16.49;89.68;98438.38;4970620;28;20543;-76
2021/06/22 02:27:48;;;;;;;12.75;2.38;;;;;;;16.35;90.81;98449.59;4961509;28;20042;-76
2021/06/22 02:30:19;;;;;;;7.03;2.28;;;;;;;16.30;90.87;98454.13;4972758;28;20427;-76
2021/06/22 02:32:47;;;;;;;6.25;1.88;;;;;;;16.18;91.05;98438.50;4955632;28;20142;-76
2021/06/22 02:35:15;;;;;;;26.58;4.60;;;;;;;16.28;91.07;98460.66;4972823;28;20050;-76
2021/06/22 02:37:42;;;;;;;7.57;2.20;;;;;;;16.34;90.81;98447.09;4972450;28;20059;-76
2021/06/22 02:40:12;;;;;;;6.65;2.65;;;;;;;16.39;90.13;98450.75;4972381;28;20109;-76
2021/06/22 02:42:39;;;;;;;4.40;2.53;;;;;;;16.28;90.31;98437.91;4966790;28;20550;-76
2021/06/22 02:45:07;;;;;;;5.75;2.42;;;;;;;16.20;90.93;98435.50;4972273;28;20051;-76
2021/06/22 02:47:35;;;;;;;8.85;3.58;;;;;;;16.18;91.27;98443.16;4972450;28;20051;-76
2021/06/22 02:50:02;;;;;;;6.15;2.63;;;;;;;16.28;90.73;98437.91;4972446;28;20463;-76
2021/06/22 02:52:28;;;;;;;4.68;2.72;;;;;;;16.18;91.51;98435.75;4972784;28;20054;-76
2021/06/22 02:54:55;;;;;;;3.90;2.55;;;;;;;16.22;92.06;98436.13;4971749;28;20458;-76
2021/06/22 02:57:22;;;;;;;6.57;2.40;;;;;;;16.19;92.27;98429.19;4962429;28;20064;-76
2021/06/22 02:59:49;;;;;;;6.35;2.88;;;;;;;16.31;91.92;98425.63;4972291;28;20125;-76
2021/06/22 03:02:15;;;;;;;6.85;2.50;;;;;;;16.39;91.95;98436.22;4972609;28;20058;-76
2021/06/22 03:04:44;;;;;;;6.93;2.13;;;;;;;16.35;91.58;98418.56;4971916;28;20047;-76
2021/06/22 03:07:11;;;;;;;8.20;2.38;;;;;;;16.49;90.66;98428.22;4971842;28;20055;-76
2021/06/22 03:09:37;;;;;;;8.40;3.55;;;;;;;16.57;90.63;98436.06;4972478;28;20775;-76
2021/06/22 03:12:05;;;;;;;8.68;2.75;;;;;;;16.49;92.06;98443.84;4971934;28;20443;-76
2021/06/22 03:14:32;;;;;;;5.30;2.30;;;;;;;16.48;92.36;98434.75;4971359;28;20047;-76
2021/06/22 03:16:58;;;;;;;7.15;2.78;;;;;;;16.47;92.15;98438.59;4972379;28;20073;-76
2021/06/22 03:19:25;;;;;;;12.20;3.47;;;;;;;16.55;91.04;98419.00;4971889;28;20128;-76
2021/06/22 03:21:53;;;;;;;11.23;2.30;;;;;;;16.68;90.59;98431.63;4972881;28;20051;-76
2021/06/22 03:24:21;;;;;;;7.07;2.97;;;;;;;16.57;90.14;98422.34;4971533;28;20388;-76
2021/06/22 03:26:48;;;;;;;12.13;2.90;;;;;;;16.37;91.63;98432.88;4972056;28;20404;-76
2021/06/22 03:29:16;;;;;;;6.93;2.70;;;;;;;16.39;91.44;98428.81;4970429;28;20040;-76
2021/06/22 03:31:43;;;;;;;8.70;2.65;;;;;;;16.33;92.19;98416.06;4961623;28;20043;-76
2021/06/22 03:34:10;;;;;;;5.95;2.88;;;;;;;16.35;91.71;98418.56;4975713;28;20047;-76
2021/06/22 03:36:37;;;;;;;5.38;2.97;;;;;;;16.50;91.78;98418.06;4976108;28;20550;-76
2021/06/22 03:39:07;;;;;;;4.78;2.78;;;;;;;16.45;92.14;98410.56;4976012;28;20058;-76
2021/06/22 03:41:34;;;;;;;6.30;2.70;;;;;;;16.50;92.70;98416.16;4975563;28;20130;-76
2021/06/22 03:44:01;;;;;;;6.72;3.03;;;;;;;16.52;92.67;98418.66;4975382;28;20051;-76
2021/06/22 03:46:28;;;;;;;5.55;2.95;;;;;;;16.74;91.22;98416.09;4974576;28;20054;-76
2021/06/22 03:48:55;;;;;;;11.35;2.83;;;;;;;16.71;91.46;98433.03;4975117;28;20106;-76
2021/06/22 03:51:21;;;;;;;7.05;2.70;;;;;;;16.66;91.87;98417.31;4975782;28;20478;-76
2021/06/22 03:53:49;;;;;;;6.50;2.97;;;;;;;16.68;91.99;98423.41;4975684;28;20106;-76
2021/06/22 03:56:17;;;;;;;4.05;3.08;;;;;;;16.81;90.90;98411.31;4975233;28;20082;-76
2021/06/22 03:58:44;;;;;;;5.88;3.33;;;;;;;17.02;90.15;98414.47;4975807;28;20143;-76
2021/06/22 04:01:11;;;;;;;5.82;2.75;;;;;;;16.99;90.09;98418.53;4974988;28;20221;-76
2021/06/22 04:03:38;;;;;;;10.23;2.80;;;;;;;16.72;91.43;98427.31;4961712;28;20562;-76
2021/06/22 04:06:05;;;;;;;7.40;2.20;;;;;;;16.93;91.13;98430.50;4957349;28;20141;-77
2021/06/22 04:08:33;;;;;;;5.55;2.55;;;;;;;16.87;90.42;98415.84;4974911;28;20391;-75
2021/06/22 04:10:59;;;;;;;2.75;2.17;;;;;;;17.09;89.87;98437.97;4975808;28;20046;-75
2021/06/22 04:13:28;;;;;;;10.60;2.90;;;;;;;17.09;89.62;98424.25;4976122;28;20046;-76
2021/06/22 04:15:55;;;;;;;11.00;3.20;;;;;;;16.92;90.36;98437.06;4977367;28;20050;-76
2021/06/22 04:18:22;;;;;;;12.18;3.53;;;;;;;16.87;91.09;98429.56;4974519;28;20113;-76
2021/06/22 04:20:49;;;;;;;10.38;3.00;;;;;;;16.95;90.65;98429.19;4978655;28;20054;-76
2021/06/22 04:23:17;;;;;;;4.82;2.75;;;;;;;16.90;91.47;98426.34;4974986;28;20435;-76
2021/06/22 04:25:44;;;;;;;4.70;3.22;;;;;;;17.03;91.67;98429.91;4975441;28;20059;-76
2021/06/22 04:28:11;;;;;;;8.02;3.80;;;;;;;17.06;91.34;98410.19;4974764;28;20051;-76
2021/06/22 04:30:39;;;;;;;10.52;3.83;;;;;;;17.08;92.90;98427.22;4975255;28;20062;-76
2021/06/22 04:33:07;;;;;;;4.70;3.60;;;;;;;17.14;92.43;98437.22;4975188;28;20042;-76
2021/06/22 04:35:34;;;;;;;14.43;3.70;;;;;;;17.12;92.90;98437.47;4974843;28;20047;-76
2021/06/22 04:38:02;;;;;;;9.55;3.47;;;;;;;17.23;93.37;98433.00;4957808;28;20051;-76
2021/06/22 04:40:29;;;;;;;6.97;4.00;;;;;;;17.34;91.36;98420.28;4966457;28;20403;-76
2021/06/22 04:42:56;;;;;;;9.88;6.38;;;;;;;17.42;92.02;98425.41;4974655;28;20046;-77
2021/06/22 04:45:23;;;;;;;10.82;5.38;;;;;;;17.45;92.81;98402.91;4974284;28;20514;-77
2021/06/22 04:47:51;;;;;;;17.20;8.77;;;;;;;17.53;93.16;98409.91;4974356;28;20121;-76
2021/06/22 04:50:18;;;;;;;19.25;11.23;;;;;;;17.52;94.86;98416.47;4973374;28;20502;-77
2021/06/22 04:52:44;;;;;;;21.73;11.43;;;;;;;17.65;94.41;98412.59;4973247;28;20054;-77
2021/06/22 04:55:14;;;;;;;18.70;11.30;;;;;;;17.54;94.99;98400.59;4974171;28;20654;-77
2021/06/22 04:57:41;;;;;;;22.10;11.52;;;;;;;17.56;95.70;98412.16;4974275;28;20090;-77
2021/06/22 05:00:09;;;;;;;24.83;12.60;;;;;;;17.62;96.00;98424.06;4974501;28;20487;-77
2021/06/22 05:02:36;;;;;;;20.77;11.05;;;;;;;17.55;95.94;98415.16;4974559;28;20057;-77
2021/06/22 05:05:05;;;;;;;16.15;11.40;;;;;;;17.56;96.13;98420.41;4973978;28;20051;-77
2021/06/22 05:07:32;;;;;;;22.17;12.50;;;;;;;17.76;95.25;98419.09;4973917;28;20059;-77
2021/06/22 05:09:59;;;;;;;17.58;10.73;;;;;;;17.76;95.54;98414.41;4971885;28;20043;-77
2021/06/22 05:12:26;;;;;;;18.50;11.55;;;;;;;17.92;94.53;98425.69;4973867;28;20094;-77
2021/06/22 05:14:53;;;;;;;17.75;10.93;;;;;;;17.81;94.73;98422.75;4973415;28;20038;-76
2021/06/22 05:17:20;;;;;;;15.57;10.70;;;;;;;17.83;94.77;98428.81;4973985;28;20105;-77
2021/06/22 05:19:47;;;;;;;15.20;10.63;;;;;;;17.91;93.97;98422.09;4974181;28;20046;-76
2021/06/22 05:22:16;;;;;;;12.90;6.82;;;;;;;18.00;91.87;98437.09;4973418;28;20063;-76
2021/06/22 05:24:43;;;;;;;10.45;7.28;;;;;;;18.10;91.03;98452.94;4973574;28;20050;-76
2021/06/22 05:27:10;;;;;;;14.98;7.80;;;;;;;18.11;91.50;98462.84;4970606;28;20097;-76
2021/06/22 05:29:36;;;;;;;13.55;7.63;;;;;;;18.09;91.50;98459.50;4973449;28;20498;-76
2021/06/22 05:32:04;;;;;;;12.50;6.90;;;;;;;18.25;90.91;98471.59;4973954;28;20085;-76
2021/06/22 05:34:32;;;;;;;13.30;7.28;;;;;;;18.19;90.98;98467.09;4973571;28;20051;-76
2021/06/22 05:36:58;;;;;;;11.27;7.75;;;;;;;18.24;91.58;98469.09;4972894;28;20047;-76
2021/06/22 05:39:27;;;;;;;14.23;7.78;;;;;;;18.29;91.92;98474.66;4974737;28;20055;-75
2021/06/22 05:41:54;;;;;;;12.02;7.40;;;;;;;18.34;90.69;98464.56;4965214;28;20047;-76
2021/06/22 05:44:21;;;;;;;17.95;9.02;;;;;;;18.35;90.70;98466.25;4973197;28;20047;-75
2021/06/22 05:46:48;;;;;;;27.70;9.95;;;;;;;18.31;91.31;98467.81;4974381;28;20082;-75
2021/06/22 05:49:14;;;;;;;13.30;8.48;;;;;;;18.33;91.19;98462.88;4973868;28;20101;-75
2021/06/22 05:51:41;;;;;;;15.57;8.63;;;;;;;18.22;91.81;98470.16;4991169;28;20050;-75
2021/06/22 05:54:08;;;;;;;10.88;8.18;;;;;;;18.25;91.47;98485.34;4973073;28;20145;-75
2021/06/22 05:56:37;;;;;;;16.05;8.27;;;;;;;18.20;91.08;98477.00;4973114;28;20136;-75
2021/06/22 05:59:03;;;;;;;15.50;8.65;;;;;;;18.25;90.82;98482.59;4958465;28;20055;-75
2021/06/22 06:01:30;;;;;;;9.25;7.80;;;;;;;18.29;90.99;98478.25;4967936;28;20565;-75
2021/06/22 06:03:57;;;;;;;12.65;7.90;;;;;;;18.38;92.79;98486.91;4972916;28;20046;-76
2021/06/22 06:06:24;;;;;;;14.82;8.63;;;;;;;18.50;92.10;98481.28;4973417;28;20050;-76
2021/06/22 06:08:51;;;;;;;10.52;7.93;;;;;;;18.51;90.86;98477.47;4973083;28;20062;-76
2021/06/22 06:11:18;;;;;;;10.50;8.57;;;;;;;18.72;89.71;98493.16;4973064;28;20046;-75
2021/06/22 06:13:46;;;;;;;9.75;7.68;;;;;;;19.02;88.55;98497.44;4962868;28;20047;-76
2021/06/22 06:16:13;;;;;;;10.75;7.63;;;;;;;19.28;86.48;98492.22;4966162;28;20051;-76
2021/06/22 06:18:40;;;;;;;10.93;8.57;;;;;;;19.54;85.47;98500.78;4973285;28;20050;-76
2021/06/22 06:21:07;;;;;;;10.30;7.78;;;;;;;19.92;83.65;98493.47;4972955;28;20055;-76
2021/06/22 06:23:38;;;;;;;16.30;7.53;;;;;;;20.06;82.49;98497.44;4972983;28;20050;-76
2021/06/22 06:26:06;;;;;;;9.73;7.28;;;;;;;19.72;82.36;98478.38;4972421;28;20054;-76
2021/06/22 06:28:36;;;;;;;12.38;6.95;;;;;;;19.59;83.82;98501.66;4973550;28;20145;-76
2021/06/22 06:31:04;;;;;;;10.63;7.20;;;;;;;19.56;83.32;98491.16;4967523;28;20057;-76
2021/06/22 06:33:31;;;;;;;9.45;7.07;;;;;;;19.38;84.58;98489.59;4973211;28;20051;-76
2021/06/22 06:35:57;;;;;;;11.43;6.63;;;;;;;19.50;84.33;98505.16;4972500;28;20051;-76
2021/06/22 06:38:24;;;;;;;7.28;5.82;;;;;;;19.41;83.10;98502.84;4974083;28;20302;-76
2021/06/22 06:40:51;;;;;;;8.25;4.90;;;;;;;19.56;83.13;98502.19;4972659;28;20519;-75
2021/06/22 06:43:18;;;;;;;10.00;4.53;;;;;;;19.55;83.17;98511.53;4972426;28;20137;-76
2021/06/22 06:45:45;;;;;;;7.72;4.80;;;;;;;19.49;83.57;98511.75;4972656;28;20043;-76
2021/06/22 06:48:13;;;;;;;6.30;5.10;;;;;;;19.51;83.37;98528.84;4964458;28;20051;-76
2021/06/22 06:50:40;;;;;;;6.18;4.97;;;;;;;19.30;83.88;98511.25;4973041;28;20058;-76
2021/06/22 06:53:07;;;;;;;7.18;5.45;;;;;;;19.48;83.66;98523.88;4972426;28;20499;-76
2021/06/22 06:55:38;;;;;;;8.23;5.00;;;;;;;19.43;83.93;98519.13;4971955;28;20058;-76
2021/06/22 06:58:06;;;;;;;10.70;7.63;;;;;;;19.56;83.97;98520.66;4953599;28;20078;-76
2021/06/22 07:00:34;;;;;;;10.27;6.53;;;;;;;19.54;85.79;98525.59;4961396;28;20104;-76
2021/06/22 07:03:01;;;;;;;10.07;7.75;;;;;;;19.54;85.79;98529.19;4971357;28;20062;-75
2021/06/22 07:05:32;;;;;;;10.38;7.88;;;;;;;19.50;85.04;98535.47;4966709;28;20051;-76
2021/06/22 07:07:59;;;;;;;14.25;8.73;;;;;;;19.34;85.55;98534.47;4972488;28;20050;-74
2021/06/22 07:10:26;;;;;;;10.88;7.82;;;;;;;19.45;84.85;98522.44;4972676;28;20046;-74
2021/06/22 07:12:55;;;;;;;7.90;7.10;;;;;;;19.64;85.04;98545.00;4972113;28;20057;-74
2021/06/22 07:15:22;;;;;;;10.30;7.32;;;;;;;19.60;85.08;98543.84;4970954;28;20051;-74
2021/06/22 07:17:49;;;;;;;9.68;6.43;;;;;;;19.64;83.74;98539.47;4972099;28;20539;-75
2021/06/22 07:20:16;;;;;;;14.35;7.25;;;;;;;19.62;84.44;98531.47;4975400;28;20482;-75
2021/06/22 07:22:44;;;;;;;12.70;6.90;;;;;;;19.81;84.14;98536.66;4967438;28;20145;-75
2021/06/22 07:25:12;;;;;;;8.93;6.63;;;;;;;19.91;82.97;98534.00;4954432;28;20047;-75
2021/06/22 07:27:39;;;;;;;6.68;5.75;;;;;;;20.06;82.16;98530.53;4971972;28;20106;-75
2021/06/22 07:30:07;;;;;;;9.40;6.55;;;;;;;20.17;80.39;98514.91;4953117;28;20058;-75
2021/06/22 07:32:33;;;;;;;8.98;5.75;;;;;;;20.26;81.98;98515.25;4970429;28;20467;-75
2021/06/22 07:35:00;;;;;;;10.75;5.38;;;;;;;20.45;79.91;98529.47;4971874;28;20055;-75
2021/06/22 07:37:27;;;;;;;9.93;4.68;;;;;;;20.40;79.68;98521.13;4972090;28;20067;-75
2021/06/22 07:39:55;;;;;;;7.72;4.93;;;;;;;20.63;79.07;98531.81;4952817;28;20063;-75
2021/06/22 07:42:22;;;;;;;8.57;5.00;;;;;;;20.51;79.84;98540.28;4968680;28;20081;-75
2021/06/22 07:44:48;;;;;;;5.55;4.53;;;;;;;20.74;78.99;98552.06;4971825;28;20047;-75
2021/06/22 07:47:15;;;;;;;6.38;4.65;;;;;;;20.78;78.51;98546.84;4971621;28;20447;-75
2021/06/22 07:49:42;;;;;;;6.78;4.90;;;;;;;20.84;78.03;98545.78;4972054;28;20046;-75
2021/06/22 07:52:10;;;;;;;7.47;5.07;;;;;;;20.90;78.02;98546.66;4971386;28;20329;-74
2021/06/22 07:54:37;;;;;;;7.70;5.45;;;;;;;20.57;77.52;98532.88;4970202;28;20043;-74
2021/06/22 07:57:05;;;;;;;7.15;5.15;;;;;;;20.76;78.45;98557.31;4972355;28;20129;-74
2021/06/22 07:59:32;;;;;;;6.97;5.50;;;;;;;20.86;77.97;98546.31;4973273;28;20466;-74
2021/06/22 08:01:59;;;;;;;7.05;5.70;;;;;;;20.80;77.60;98552.94;4973248;28;20054;-75
2021/06/22 08:04:26;;;;;;;7.13;4.68;;;;;;;20.91;77.47;98542.75;4971440;28;20047;-74
2021/06/22 08:06:54;;;;;;;9.82;5.28;;;;;;;20.85;76.99;98547.41;4972037;28;20051;-74
2021/06/22 08:09:21;;;;;;;7.70;4.93;;;;;;;20.99;77.92;98540.31;4972235;28;20061;-74
2021/06/22 08:11:47;;;;;;;6.43;4.57;;;;;;;21.11;76.73;98542.88;4955188;28;20051;-74
2021/06/22 08:14:16;;;;;;;5.70;5.03;;;;;;;21.20;75.51;98546.78;4962358;28;20105;-74
2021/06/22 08:16:43;;;;;;;7.15;4.80;;;;;;;21.09;76.03;98534.03;4975704;28;20051;-74
2021/06/22 08:19:10;;;;;;;6.45;5.10;;;;;;;20.98;75.37;98535.88;4975266;28;20050;-74
2021/06/22 08:21:37;;;;;;;8.32;6.30;;;;;;;21.26;75.35;98539.34;4975481;28;20054;-74
2021/06/22 08:24:05;;;;;;;6.25;4.85;;;;;;;21.50;74.79;98534.22;4975142;28;20054;-74
2021/06/22 08:26:32;;;;;;;7.00;5.15;;;;;;;21.57;73.44;98514.59;4975194;28;20050;-74
2021/06/22 08:28:58;;;;;;;11.07;4.30;;;;;;;21.79;73.38;98541.19;4963058;28;20122;-74
2021/06/22 08:31:26;;;;;;;6.00;4.97;;;;;;;21.66;73.22;98548.91;4971136;28;20105;-75
2021/06/22 08:33:53;;;;;;;6.47;4.40;;;;;;;21.35;76.11;98534.13;4975199;28;20051;-74
2021/06/22 08:36:20;;;;;;;6.10;4.75;;;;;;;21.29;75.56;98560.09;4974713;28;20054;-74
2021/06/22 08:38:47;;;;;;;7.10;4.50;;;;;;;20.89;76.41;98547.75;4974989;28;20503;-74
2021/06/22 08:41:14;;;;;;;7.53;4.45;;;;;;;20.78;77.58;98563.44;4974874;28;20047;-75
2021/06/22 08:43:41;;;;;;;10.07;4.93;;;;;;;20.77;77.18;98556.22;4974731;28;20058;-74
2021/06/22 08:46:10;;;;;;;8.40;5.30;;;;;;;20.56;78.14;98561.56;4974515;28;20055;-75
2021/06/22 08:48:38;;;;;;;8.68;5.63;;;;;;;20.50;78.46;98566.25;4974868;28;20050;-74
2021/06/22 08:51:06;;;;;;;7.30;5.28;;;;;;;20.70;78.21;98570.28;4974911;28;20114;-74
2021/06/22 08:53:33;;;;;;;7.97;6.32;;;;;;;20.47;78.88;98561.25;4975032;28;20058;-74
2021/06/22 08:55:59;;;;;;;12.23;6.63;;;;;;;20.66;78.08;98567.19;4974581;28;20113;-74
2021/06/22 08:58:26;;;;;;;9.80;6.47;;;;;;;20.55;78.39;98575.63;4968728;28;20051;-74
2021/06/22 09:00:54;;;;;;;11.32;6.47;;;;;;;20.71;79.89;98582.97;4962572;28;20055;-74
2021/06/22 09:03:24;;;;;;;12.20;7.13;;;;;;;20.76;80.30;98583.03;4974544;28;20058;-74
2021/06/22 09:05:54;;;;;;;;;;;;;;;20.77;82.34;98587.44;4974922;28;20048;-74
2021/06/22 09:08:22;;;;;;;11.27;7.70;;;;;;;20.63;82.74;98594.50;4974443;28;19941;-74
2021/06/22 09:10:52;;;;;;;10.25;9.15;;;;;;;20.63;81.64;98583.44;4974755;28;20054;-74
2021/06/22 09:13:20;;;;;;;;;;;;;;;20.73;80.07;98589.09;4974430;28;20081;-75
2021/06/22 09:15:49;;;;;;;11.63;8.77;;;;;;;20.49;81.78;98592.19;4973896;28;19922;-74
2021/06/22 09:18:26;;;;;;;10.60;8.43;;;;;;;20.34;81.17;98575.50;4974308;28;20125;-74
2021/06/22 09:20:58;;;;;;;10.10;7.80;;;;;;;20.38;79.42;98570.28;4974297;28;20054;-75
2021/06/22 09:23:27;;;;;;;9.80;7.88;;;;;;;20.25;81.78;98580.66;4974166;28;20113;-74
2021/06/22 09:25:56;;;;;;;14.73;8.48;;;;;;;20.08;84.31;98568.91;4973114;28;20175;-74
2021/06/22 09:28:26;;;;;;;11.85;8.55;;;;;;;20.25;83.04;98591.69;4974031;28;20047;-74
2021/06/22 09:30:55;;;;;;;12.88;9.18;;;;;;;20.27;81.61;98586.75;4974282;28;20050;-76
2021/06/22 09:33:25;;;;;;;14.35;9.32;;;;;;;20.49;82.76;98591.34;4973390;28;20057;-76
2021/06/22 09:36:00;;;;;;;10.98;8.77;;;;;;;20.64;80.86;98596.13;4973888;28;20046;-77
2021/06/22 09:38:29;;;;;;;10.50;9.38;;;;;;;20.58;81.57;98584.25;4973569;28;20054;-77
2021/06/22 09:41:10;;;;;;;10.30;8.25;;;;;;;20.39;81.17;98583.00;4974132;28;20483;-77
2021/06/22 09:43:39;;;;;;;13.73;9.35;;;;;;;20.58;82.30;98583.38;4973718;28;20051;-77
2021/06/22 09:46:07;;;;;;;10.43;9.32;;;;;;;20.55;81.34;98583.91;4973573;28;20467;-78
2021/06/22 09:48:41;;;;;;;12.43;9.50;;;;;;;20.35;85.32;98599.22;4968624;28;20460;-77
2021/06/22 09:51:10;;;;;;;10.98;8.98;;;;;;;20.29;85.14;98594.75;4957933;28;20125;-76
2021/06/22 09:53:36;;;;;;;13.02;9.35;;;;;;;20.13;84.30;98589.09;4973544;28;20058;-76
2021/06/22 09:56:05;;;;;;;12.82;9.27;;;;;;;20.28;83.63;98591.19;4973645;28;20054;-76
2021/06/22 09:58:40;;;;;;;11.73;9.43;;;;;;;20.43;84.28;98584.97;4973333;28;20079;-76
2021/06/22 10:01:32;;;;;;;12.15;10.05;;;;;;;20.61;84.61;98591.16;4973332;28;20078;-76
2021/06/22 10:04:14;;;;;;;14.07;10.20;;;;;;;20.78;84.78;98604.84;4972480;28;20419;-76
2021/06/22 10:06:42;;;;;;;12.38;9.10;;;;;;;20.67;83.35;98601.16;4966176;28;20054;-76
2021/06/22 10:09:09;;;;;;;11.90;9.80;;;;;;;20.76;83.65;98604.28;4973264;28;20050;-77
2021/06/22 10:11:39;;;;;;;10.68;8.95;;;;;;;20.81;82.15;98605.16;4974949;28;20499;-77
2021/06/22 10:14:08;;;;;;;;;;;;;;;20.77;81.63;98609.53;4975200;28;20058;-77
2021/06/22 10:16:35;;;;;;;10.80;9.45;;;;;;;20.93;84.48;98604.94;4975440;28;19922;-77
2021/06/22 10:19:04;;;;;;;15.80;9.63;;;;;;;20.93;80.66;98609.66;4975377;28;20050;-77
2021/06/22 10:21:33;;;;;;;12.37;9.77;;;;;;;20.99;83.20;98608.59;4965173;28;20054;-77
2021/06/22 10:24:02;;;;;;;13.55;9.63;;;;;;;21.21;80.68;98611.19;4955656;28;20756;-76
2021/06/22 10:26:29;;;;;;;16.65;11.35;;;;;;;21.43;81.79;98613.78;4955366;28;20074;-77
2021/06/22 10:28:57;;;;;;;12.25;9.35;;;;;;;21.73;79.57;98599.25;4955325;28;20051;-77
2021/06/22 10:31:25;;;;;;;13.48;11.30;;;;;;;22.13;80.16;98596.88;4955233;28;20059;-77
2021/06/22 10:33:53;;;;;;;16.42;8.57;;;;;;;22.16;74.40;98614.84;4953600;28;20070;-76
2021/06/22 10:36:25;;;;;;;11.30;9.80;;;;;;;22.03;79.69;98624.53;4970329;28;20043;-76
2021/06/22 10:39:06;;;;;;;16.23;9.30;;;;;;;21.88;77.19;98612.31;4967090;28;20058;-76
2021/06/22 10:41:41;;;;;;;12.98;8.35;;;;;;;22.07;76.34;98620.94;4975047;28;20426;-77
2021/06/22 10:44:31;;;;;;;11.48;8.60;;;;;;;21.90;77.95;98610.13;4972827;28;20050;-76
2021/06/22 10:47:16;;;;;;;9.35;7.75;;;;;;;21.81;78.10;98639.41;4971750;28;20047;-77
2021/06/22 10:50:11;;;;;;;12.57;7.38;;;;;;;21.81;77.57;98639.41;4970962;28;20294;-76
2021/06/22 10:53:01;;;;;;;8.50;5.75;;;;;;;21.60;74.20;98623.84;4969464;28;20061;-76
2021/06/22 10:56:04;;;;;;;8.48;4.80;;;;;;;21.30;77.08;98639.16;4971719;28;20047;-76
2021/06/22 10:58:33;;;;;;;8.88;4.80;;;;;;;21.18;74.36;98622.78;4971211;28;20589;-76
2021/06/22 11:01:13;;;;;;;5.82;4.60;;;;;;;21.32;73.65;98642.50;4972479;28;20050;-76
2021/06/22 11:03:39;;;;;;;;;;;;;;;21.34;77.08;98654.09;4971651;28;20627;-76
2021/06/22 11:06:26;;;;;;;5.00;4.10;;;;;;;21.40;75.68;98658.56;4971316;28;19930;-76
2021/06/22 11:08:55;;;;;;;8.23;3.85;;;;;;;21.16;74.51;98628.56;4970580;28;20069;-77
2021/06/22 11:11:24;;;;;;;7.65;4.13;;;;;;;21.44;73.36;98645.03;4964881;28;20471;-76
2021/06/22 11:13:55;;;;;;;6.20;4.13;;;;;;;21.18;73.77;98623.63;4971099;28;20047;-76
2021/06/22 11:16:33;;;;;;;8.70;4.72;;;;;;;21.04;75.22;98619.66;4971730;28;20331;-76
2021/06/22 11:19:06;;;;;;;5.53;4.57;;;;;;;21.13;74.97;98625.53;4972311;28;20043;-77
2021/06/22 11:21:35;;;;;;;7.13;5.05;;;;;;;21.40;77.93;98633.69;4970801;28;20051;-76
2021/06/22 11:24:05;;;;;;;8.27;4.83;;;;;;;21.25;74.76;98636.38;4972154;28;20053;-76
2021/06/22 11:26:52;;;;;;;;;;;;;;;21.18;76.66;98639.34;4976400;28;20046;-77
2021/06/22 11:29:22;;;;;;;11.68;6.20;;;;;;;21.07;77.89;98641.22;4958059;28;20017;-77
2021/06/22 11:31:58;;;;;;;8.43;5.82;;;;;;;20.96;78.54;98645.84;4959130;28;20109;-76
2021/06/22 11:34:28;;;;;;;7.22;4.35;;;;;;;21.04;75.72;98639.00;4970476;28;20058;-77
2021/06/22 11:36:57;;;;;;;8.35;4.47;;;;;;;21.06;75.02;98633.19;4972299;28;20125;-76